Time,TemperatureF,DewpointF,PressureIn,WindDirection,WindDirectionDegrees,WindSpeedMPH,WindSpeedGustMPH,Humidity,HourlyPrecipIn,Conditions,Clouds,dailyrainin,SoftwareType,DateUTC
2013-06-23 00:00:00,67.6,63.6,29.92,ENE,67,0.0,-999.0,87,-99.99,,,0.00,Acu-Link.com,2013-06-23 04:00:00,
2013-06-23 00:16:00,67.3,63.3,29.92,East,90,0.0,-999.0,87,-99.99,,,0.00,Acu-Link.com,2013-06-23 04:16:00,
2013-06-23 00:31:00,66.9,62.9,29.92,SSE,157,0.0,-999.0,87,-99.99,,,0.00,Acu-Link.com,2013-06-23 04:31:00,
2013-06-23 00:46:00,66.7,63.0,29.93,ENE,67,0.0,-999.0,88,-99.99,,,0.00,Acu-Link.com,2013-06-23 04:46:00,
2013-06-23 01:01:00,66.6,62.9,29.92,SE,135,0.0,-999.0,88,-99.99,,,0.00,Acu-Link.com,2013-06-23 05:01:00,
2013-06-23 01:16:00,66.6,62.9,29.93,SSE,157,0.0,-999.0,88,-99.99,,,0.00,Acu-Link.com,2013-06-23 05:16:00,
2013-06-23 01:31:00,66.7,63.0,29.92,ESE,112,0.0,-999.0,88,-99.99,,,0.00,Acu-Link.com,2013-06-23 05:31:00,
2013-06-23 01:47:00,66.4,62.7,29.92,West,270,0.0,-999.0,88,-99.99,,,0.00,Acu-Link.com,2013-06-23 05:47:00,
2013-06-23 02:02:00,66.2,62.9,29.93,SE,135,0.0,-999.0,89,-99.99,,,0.00,Acu-Link.com,2013-06-23 06:02:00,
2013-06-23 02:17:00,65.8,62.5,29.92,WSW,247,0.0,-999.0,89,-99.99,,,0.00,Acu-Link.com,2013-06-23 06:17:00,
2013-06-23 02:32:00,65.7,62.4,29.91,East,90,0.0,-999.0,89,-99.99,,,0.00,Acu-Link.com,2013-06-23 06:32:00,
2013-06-23 02:47:00,65.3,62.0,29.91,SSE,157,0.0,-999.0,89,-99.99,,,0.00,Acu-Link.com,2013-06-23 06:47:00,
2013-06-23 03:02:00,64.9,61.6,29.91,ENE,67,0.0,-999.0,89,-99.99,,,0.00,Acu-Link.com,2013-06-23 07:02:00,
2013-06-23 03:17:00,64.8,61.8,29.91,ENE,67,0.0,-999.0,90,-99.99,,,0.00,Acu-Link.com,2013-06-23 07:17:00,
2013-06-23 03:32:00,64.4,61.4,29.91,ESE,112,0.0,-999.0,90,-99.99,,,0.00,Acu-Link.com,2013-06-23 07:32:00,
2013-06-23 03:47:00,64.0,61.0,29.91,East,90,0.0,-999.0,90,-99.99,,,0.00,Acu-Link.com,2013-06-23 07:47:00,
2013-06-23 04:03:00,64.0,61.0,29.91,NE,45,0.0,-999.0,90,-99.99,,,0.00,Acu-Link.com,2013-06-23 08:03:00,
2013-06-23 04:18:00,63.9,60.9,29.91,NE,45,0.0,-999.0,90,-99.99,,,0.00,Acu-Link.com,2013-06-23 08:18:00,
2013-06-23 04:33:00,63.9,61.2,29.92,SE,135,0.0,-999.0,91,-99.99,,,0.00,Acu-Link.com,2013-06-23 08:33:00,
2013-06-23 04:48:00,63.9,61.2,29.92,ESE,112,0.0,-999.0,91,-99.99,,,0.00,Acu-Link.com,2013-06-23 08:48:00,
2013-06-23 05:04:00,63.7,61.0,29.92,ENE,67,0.0,-999.0,91,-99.99,,,0.00,Acu-Link.com,2013-06-23 09:04:00,
2013-06-23 05:19:00,63.7,61.0,29.92,ESE,112,0.0,-999.0,91,-99.99,,,0.00,Acu-Link.com,2013-06-23 09:19:00,
2013-06-23 05:34:00,63.5,60.8,29.93,ESE,112,0.0,-999.0,91,-99.99,,,0.00,Acu-Link.com,2013-06-23 09:34:00,
2013-06-23 05:49:00,63.9,61.2,29.94,East,90,0.0,-999.0,91,-99.99,,,0.00,Acu-Link.com,2013-06-23 09:49:00,
2013-06-23 06:04:00,64.2,61.5,29.94,SE,135,0.0,-999.0,91,-99.99,,,0.00,Acu-Link.com,2013-06-23 10:04:00,
2013-06-23 06:19:00,64.4,61.7,29.95,ESE,112,0.0,-999.0,91,-99.99,,,0.00,Acu-Link.com,2013-06-23 10:19:00,
2013-06-23 06:34:00,64.4,61.7,29.95,NE,45,0.0,-999.0,91,-99.99,,,0.00,Acu-Link.com,2013-06-23 10:34:00,
2013-06-23 06:49:00,64.9,62.2,29.96,SSE,157,0.0,-999.0,91,-99.99,,,0.00,Acu-Link.com,2013-06-23 10:49:00,
2013-06-23 07:04:00,66.0,63.3,29.96,South,180,0.0,-999.0,91,-99.99,,,0.00,Acu-Link.com,2013-06-23 11:04:00,
2013-06-23 07:20:00,66.0,63.3,29.96,ESE,112,0.0,-999.0,91,-99.99,,,0.00,Acu-Link.com,2013-06-23 11:20:00,
2013-06-23 07:35:00,67.1,64.1,29.96,West,270,0.0,-999.0,90,-99.99,,,0.00,Acu-Link.com,2013-06-23 11:35:00,
2013-06-23 07:50:00,67.6,64.2,29.96,SSE,157,0.0,-999.0,89,-99.99,,,0.00,Acu-Link.com,2013-06-23 11:50:00,
2013-06-23 08:05:00,68.0,64.0,29.95,South,180,0.0,-999.0,87,-99.99,,,0.00,Acu-Link.com,2013-06-23 12:05:00,
2013-06-23 08:20:00,68.4,64.7,29.96,West,270,1.1,-999.0,88,-99.99,,,0.00,Acu-Link.com,2013-06-23 12:20:00,
2013-06-23 08:35:00,69.6,65.6,29.96,SSE,157,0.0,-999.0,87,-99.99,,,0.00,Acu-Link.com,2013-06-23 12:35:00,
2013-06-23 08:50:00,70.9,66.2,29.95,ESE,112,1.1,-999.0,85,-99.99,,,0.00,Acu-Link.com,2013-06-23 12:50:00,
2013-06-23 09:05:00,72.3,66.5,29.95,SSE,157,0.0,-999.0,82,-99.99,,,0.00,Acu-Link.com,2013-06-23 13:05:00,
2013-06-23 09:20:00,73.8,67.2,29.94,South,180,0.0,-999.0,80,-99.99,,,0.00,Acu-Link.com,2013-06-23 13:20:00,
2013-06-23 09:36:00,75.0,66.9,29.94,SSE,157,0.0,-999.0,76,-99.99,,,0.00,Acu-Link.com,2013-06-23 13:36:00,
2013-06-23 09:51:00,77.4,67.2,29.94,South,180,0.0,-999.0,71,-99.99,,,0.00,Acu-Link.com,2013-06-23 13:51:00,
2013-06-23 10:06:00,78.8,67.3,29.94,SSE,157,0.0,-999.0,68,-99.99,,,0.00,Acu-Link.com,2013-06-23 14:06:00,
2013-06-23 10:21:00,79.9,68.4,29.93,East,90,1.7,-999.0,68,-99.99,,,0.00,Acu-Link.com,2013-06-23 14:21:00,
2013-06-23 10:36:00,82.6,69.6,29.92,South,180,2.7,-999.0,65,-99.99,,,0.00,Acu-Link.com,2013-06-23 14:36:00,
2013-06-23 10:51:00,83.3,70.3,29.92,SE,135,2.2,-999.0,65,-99.99,,,0.00,Acu-Link.com,2013-06-23 14:51:00,
2013-06-23 11:06:00,82.8,70.7,29.91,South,180,2.2,-999.0,67,-99.99,,,0.00,Acu-Link.com,2013-06-23 15:06:00,
2013-06-23 11:21:00,84.9,70.9,29.90,South,180,0.0,-999.0,63,-99.99,,,0.00,Acu-Link.com,2013-06-23 15:21:00,
2013-06-23 11:36:00,85.1,71.5,29.90,East,90,2.7,-999.0,64,-99.99,,,0.00,Acu-Link.com,2013-06-23 15:36:00,
2013-06-23 11:52:00,86.9,72.3,29.89,South,180,2.2,-999.0,62,-99.99,,,0.00,Acu-Link.com,2013-06-23 15:52:00,
2013-06-23 12:07:00,85.5,71.9,29.89,East,90,2.2,-999.0,64,-99.99,,,0.00,Acu-Link.com,2013-06-23 16:07:00,
2013-06-23 12:22:00,87.4,71.3,29.88,East,90,4.7,-999.0,59,-99.99,,,0.00,Acu-Link.com,2013-06-23 16:22:00,
2013-06-23 12:37:00,88.3,71.1,29.86,SSE,157,2.2,-999.0,57,-99.99,,,0.00,Acu-Link.com,2013-06-23 16:37:00,
2013-06-23 12:52:00,88.5,72.3,29.86,SSE,157,2.7,-999.0,59,-99.99,,,0.00,Acu-Link.com,2013-06-23 16:52:00,
2013-06-23 13:07:00,88.9,70.6,29.84,South,180,2.2,-999.0,55,-99.99,,,0.00,Acu-Link.com,2013-06-23 17:07:00,
2013-06-23 13:22:00,87.6,69.9,29.83,SSE,157,1.7,-999.0,56,-99.99,,,0.00,Acu-Link.com,2013-06-23 17:22:00,
2013-06-23 13:37:00,88.9,69.5,29.83,SSE,157,3.2,-999.0,53,-99.99,,,0.00,Acu-Link.com,2013-06-23 17:37:00,
2013-06-23 13:52:00,91.9,69.4,29.82,South,180,4.7,-999.0,48,-99.99,,,0.00,Acu-Link.com,2013-06-23 17:52:00,
2013-06-23 14:08:00,90.1,69.5,29.81,East,90,7.8,-999.0,51,-99.99,,,0.00,Acu-Link.com,2013-06-23 18:08:00,
2013-06-23 14:24:00,91.8,68.7,29.81,South,180,4.2,-999.0,47,-99.99,,,0.00,Acu-Link.com,2013-06-23 18:24:00,
2013-06-23 14:39:00,90.1,68.9,29.80,SSE,157,2.7,-999.0,50,-99.99,,,0.00,Acu-Link.com,2013-06-23 18:39:00,
2013-06-23 14:55:00,90.3,69.1,29.80,ESE,112,1.7,-999.0,50,-99.99,,,0.00,Acu-Link.com,2013-06-23 18:55:00,
2013-06-23 15:10:00,91.4,68.9,29.79,ESE,112,2.7,-999.0,48,-99.99,,,0.00,Acu-Link.com,2013-06-23 19:10:00,
2013-06-23 15:26:00,92.7,71.9,29.79,ESE,112,3.2,-999.0,51,-99.99,,,0.00,Acu-Link.com,2013-06-23 19:26:00,
2013-06-23 15:42:00,91.8,69.3,29.79,East,90,1.7,-999.0,48,-99.99,,,0.00,Acu-Link.com,2013-06-23 19:42:00,
2013-06-23 15:57:00,89.8,68.1,29.78,SSE,157,2.2,-999.0,49,-99.99,,,0.00,Acu-Link.com,2013-06-23 19:57:00,
2013-06-23 16:12:00,90.1,71.2,29.78,South,180,2.7,-999.0,54,-99.99,,,0.00,Acu-Link.com,2013-06-23 20:12:00,
2013-06-23 16:28:00,88.5,69.7,29.77,SSE,157,2.2,-999.0,54,-99.99,,,0.00,Acu-Link.com,2013-06-23 20:28:00,
2013-06-23 16:43:00,90.3,69.7,29.77,South,180,3.2,-999.0,51,-99.99,,,0.00,Acu-Link.com,2013-06-23 20:43:00,
2013-06-23 16:58:00,89.4,70.0,29.77,ESE,112,1.1,-999.0,53,-99.99,,,0.00,Acu-Link.com,2013-06-23 20:58:00,
2013-06-23 17:13:00,89.4,69.4,29.76,NE,45,1.7,-999.0,52,-99.99,,,0.00,Acu-Link.com,2013-06-23 21:13:00,
2013-06-23 17:28:00,90.9,69.6,29.76,SE,135,0.0,-999.0,50,-99.99,,,0.00,Acu-Link.com,2013-06-23 21:28:00,
2013-06-23 17:43:00,90.5,68.7,29.77,ESE,112,5.8,-999.0,49,-99.99,,,0.00,Acu-Link.com,2013-06-23 21:43:00,
2013-06-23 17:59:00,89.8,68.6,29.76,ESE,112,7.3,-999.0,50,-99.99,,,0.00,Acu-Link.com,2013-06-23 21:59:00,
2013-06-23 18:14:00,90.3,69.1,29.75,SE,135,3.2,-999.0,50,-99.99,,,0.00,Acu-Link.com,2013-06-23 22:14:00,
2013-06-23 18:29:00,91.2,68.7,29.75,ESE,112,2.7,-999.0,48,-99.99,,,0.00,Acu-Link.com,2013-06-23 22:29:00,
2013-06-23 18:44:00,92.3,72.7,29.75,SE,135,3.2,-999.0,53,-99.99,,,0.00,Acu-Link.com,2013-06-23 22:44:00,
2013-06-23 18:59:00,91.4,70.1,29.76,East,90,0.0,-999.0,50,-99.99,,,0.00,Acu-Link.com,2013-06-23 22:59:00,
2013-06-23 19:14:00,90.1,71.2,29.75,ESE,112,0.0,-999.0,54,-99.99,,,0.00,Acu-Link.com,2013-06-23 23:14:00,
2013-06-23 19:29:00,85.6,71.1,29.76,ESE,112,0.0,-999.0,62,-99.99,,,0.00,Acu-Link.com,2013-06-23 23:29:00,
2013-06-23 19:44:00,82.2,69.7,29.76,ENE,67,0.0,-999.0,66,-99.99,,,0.00,Acu-Link.com,2013-06-23 23:44:00,
2013-06-23 20:03:00,79.5,68.8,29.78,WSW,247,0.0,-999.0,70,-99.99,,,0.00,Acu-Link.com,2013-06-24 00:03:00,
2013-06-23 20:18:00,78.6,68.8,29.78,ESE,112,0.0,-999.0,72,-99.99,,,0.00,Acu-Link.com,2013-06-24 00:18:00,
2013-06-23 20:35:00,77.4,68.4,29.79,NE,45,0.0,-999.0,74,-99.99,,,0.00,Acu-Link.com,2013-06-24 00:35:00,
2013-06-23 20:50:00,78.3,67.7,29.79,ENE,67,0.0,-999.0,70,-99.99,,,0.00,Acu-Link.com,2013-06-24 00:50:00,
2013-06-23 21:05:00,78.4,67.4,29.78,East,90,1.7,-999.0,69,-99.99,,,0.00,Acu-Link.com,2013-06-24 01:05:00,
2013-06-23 21:20:00,78.8,67.7,29.79,East,90,2.7,-999.0,69,-99.99,,,0.00,Acu-Link.com,2013-06-24 01:20:00,
2013-06-23 21:36:00,78.3,66.8,29.80,ESE,112,0.0,-999.0,68,-99.99,,,0.00,Acu-Link.com,2013-06-24 01:36:00,
2013-06-23 21:51:00,77.9,66.5,29.81,East,90,0.0,-999.0,68,-99.99,,,0.00,Acu-Link.com,2013-06-24 01:51:00,
2013-06-23 22:06:00,77.9,66.0,29.82,East,90,0.0,-999.0,67,-99.99,,,0.00,Acu-Link.com,2013-06-24 02:06:00,
2013-06-23 22:21:00,77.5,66.1,29.83,ESE,112,0.0,-999.0,68,-99.99,,,0.00,Acu-Link.com,2013-06-24 02:21:00,
2013-06-23 22:36:00,77.4,66.0,29.83,SE,135,1.7,-999.0,68,-99.99,,,0.00,Acu-Link.com,2013-06-24 02:36:00,
2013-06-23 22:51:00,76.6,66.1,29.84,NNE,22,1.7,-999.0,70,-99.99,,,0.00,Acu-Link.com,2013-06-24 02:51:00,
2013-06-23 23:06:00,76.1,66.0,29.85,ENE,67,0.0,-999.0,71,-99.99,,,0.00,Acu-Link.com,2013-06-24 03:06:00,
2013-06-23 23:21:00,75.2,65.9,29.85,East,90,0.0,-999.0,73,-99.99,,,0.00,Acu-Link.com,2013-06-24 03:21:00,
2013-06-23 23:36:00,74.7,65.8,29.85,SSE,157,0.0,-999.0,74,-99.99,,,0.00,Acu-Link.com,2013-06-24 03:36:00,
2013-06-23 23:52:00,73.8,65.4,29.85,East,90,0.0,-999.0,75,-99.99,,,0.00,Acu-Link.com,2013-06-24 03:52:00,